sensor_id;sensor_type;location;lat;lon;timestamp;P1;durP1;ratioP1;P2;durP2;ratioP2
65471;SDS011;52068;50.710;14.492;2023-08-07T00:00:02;3.75;;;1.17;;
65471;SDS011;52068;50.710;14.492;2023-08-07T00:02:29;1.75;;;1.25;;
65471;SDS011;52068;50.710;14.492;2023-08-07T00:04:54;5.75;;;1.20;;
65471;SDS011;52068;50.710;14.492;2023-08-07T00:07:19;1.63;;;1.10;;
65471;SDS011;52068;50.710;14.492;2023-08-07T00:09:45;3.33;;;1.10;;
65471;SDS011;52068;50.710;14.492;2023-08-07T00:12:10;2.45;;;1.00;;
65471;SDS011;52068;50.710;14.492;2023-08-07T00:14:36;1.25;;;1.10;;
65471;SDS011;52068;50.710;14.492;2023-08-07T00:17:01;1.33;;;1.08;;
65471;SDS011;52068;50.710;14.492;2023-08-07T00:19:27;1.10;;;0.80;;
65471;SDS011;52068;50.710;14.492;2023-08-07T00:21:52;3.95;;;1.10;;
65471;SDS011;52068;50.710;14.492;2023-08-07T00:24:17;0.93;;;0.80;;
65471;SDS011;52068;50.710;14.492;2023-08-07T00:26:43;3.15;;;1.10;;
65471;SDS011;52068;50.710;14.492;2023-08-07T00:29:08;1.42;;;1.20;;
65471;SDS011;52068;50.710;14.492;2023-08-07T00:31:34;1.10;;;1.00;;
65471;SDS011;52068;50.710;14.492;2023-08-07T00:33:59;1.40;;;1.02;;
65471;SDS011;52068;50.710;14.492;2023-08-07T00:36:25;2.05;;;1.08;;
65471;SDS011;52068;50.710;14.492;2023-08-07T00:38:53;3.00;;;0.95;;
65471;SDS011;52068;50.710;14.492;2023-08-07T00:41:18;1.50;;;1.20;;
65471;SDS011;52068;50.710;14.492;2023-08-07T00:43:44;1.60;;;0.98;;
65471;SDS011;52068;50.710;14.492;2023-08-07T00:46:10;1.23;;;1.05;;
65471;SDS011;52068;50.710;14.492;2023-08-07T00:48:35;1.02;;;0.90;;
65471;SDS011;52068;50.710;14.492;2023-08-07T00:51:01;2.92;;;1.20;;
65471;SDS011;52068;50.710;14.492;2023-08-07T00:53:28;2.03;;;1.10;;
65471;SDS011;52068;50.710;14.492;2023-08-07T00:55:53;1.67;;;0.85;;
65471;SDS011;52068;50.710;14.492;2023-08-07T00:58:19;3.25;;;1.20;;
65471;SDS011;52068;50.710;14.492;2023-08-07T01:00:44;0.75;;;0.73;;
65471;SDS011;52068;50.710;14.492;2023-08-07T01:03:11;1.42;;;0.98;;
65471;SDS011;52068;50.710;14.492;2023-08-07T01:05:37;3.30;;;1.00;;
65471;SDS011;52068;50.710;14.492;2023-08-07T01:08:03;1.13;;;1.02;;
65471;SDS011;52068;50.710;14.492;2023-08-07T01:13:40;2.05;;;1.13;;
65471;SDS011;52068;50.710;14.492;2023-08-07T01:16:10;2.50;;;0.85;;
65471;SDS011;52068;50.710;14.492;2023-08-07T01:18:42;1.20;;;1.00;;
65471;SDS011;52068;50.710;14.492;2023-08-07T01:21:16;1.88;;;0.90;;
65471;SDS011;52068;50.710;14.492;2023-08-07T01:23:42;3.22;;;1.02;;
65471;SDS011;52068;50.710;14.492;2023-08-07T01:26:08;3.72;;;1.02;;
65471;SDS011;52068;50.710;14.492;2023-08-07T01:28:35;1.45;;;0.85;;
65471;SDS011;52068;50.710;14.492;2023-08-07T01:31:03;1.15;;;1.05;;
65471;SDS011;52068;50.710;14.492;2023-08-07T01:33:40;2.00;;;0.93;;
65471;SDS011;52068;50.710;14.492;2023-08-07T01:36:12;4.82;;;1.02;;
65471;SDS011;52068;50.710;14.492;2023-08-07T01:38:40;2.40;;;1.10;;
65471;SDS011;52068;50.710;14.492;2023-08-07T01:41:07;3.08;;;1.10;;
65471;SDS011;52068;50.710;14.492;2023-08-07T01:43:33;2.20;;;1.00;;
65471;SDS011;52068;50.710;14.492;2023-08-07T01:45:59;17.13;;;1.15;;
65471;SDS011;52068;50.710;14.492;2023-08-07T01:48:25;5.32;;;1.00;;
65471;SDS011;52068;50.710;14.492;2023-08-07T01:50:50;5.32;;;1.13;;
65471;SDS011;52068;50.710;14.492;2023-08-07T01:53:17;0.95;;;0.82;;
65471;SDS011;52068;50.710;14.492;2023-08-07T01:55:42;1.25;;;0.70;;
65471;SDS011;52068;50.710;14.492;2023-08-07T01:58:08;1.45;;;1.27;;
65471;SDS011;52068;50.710;14.492;2023-08-07T02:00:33;0.98;;;0.98;;
65471;SDS011;52068;50.710;14.492;2023-08-07T02:02:58;1.42;;;0.75;;
65471;SDS011;52068;50.710;14.492;2023-08-07T02:05:24;4.43;;;0.90;;
65471;SDS011;52068;50.710;14.492;2023-08-07T02:07:49;4.13;;;1.25;;
65471;SDS011;52068;50.710;14.492;2023-08-07T02:10:15;2.05;;;0.82;;
65471;SDS011;52068;50.710;14.492;2023-08-07T02:12:40;1.67;;;1.00;;
65471;SDS011;52068;50.710;14.492;2023-08-07T02:15:05;2.40;;;0.93;;
65471;SDS011;52068;50.710;14.492;2023-08-07T02:17:31;3.15;;;1.05;;
65471;SDS011;52068;50.710;14.492;2023-08-07T02:19:57;1.90;;;1.00;;
65471;SDS011;52068;50.710;14.492;2023-08-07T02:22:23;1.20;;;0.98;;
65471;SDS011;52068;50.710;14.492;2023-08-07T02:24:49;1.80;;;0.98;;
65471;SDS011;52068;50.710;14.492;2023-08-07T02:27:14;11.30;;;0.85;;
65471;SDS011;52068;50.710;14.492;2023-08-07T02:29:39;2.60;;;1.30;;
65471;SDS011;52068;50.710;14.492;2023-08-07T02:32:05;1.30;;;0.77;;
65471;SDS011;52068;50.710;14.492;2023-08-07T02:34:31;2.10;;;0.95;;
65471;SDS011;52068;50.710;14.492;2023-08-07T02:36:57;2.53;;;0.73;;
65471;SDS011;52068;50.710;14.492;2023-08-07T02:39:23;1.40;;;0.73;;
65471;SDS011;52068;50.710;14.492;2023-08-07T02:41:48;1.88;;;0.90;;
65471;SDS011;52068;50.710;14.492;2023-08-07T02:44:14;1.50;;;0.70;;
65471;SDS011;52068;50.710;14.492;2023-08-07T02:46:39;3.47;;;0.88;;
65471;SDS011;52068;50.710;14.492;2023-08-07T02:49:05;1.65;;;0.80;;
65471;SDS011;52068;50.710;14.492;2023-08-07T02:51:30;0.60;;;0.55;;
65471;SDS011;52068;50.710;14.492;2023-08-07T02:53:57;2.20;;;0.80;;
65471;SDS011;52068;50.710;14.492;2023-08-07T02:56:22;15.20;;;1.10;;
65471;SDS011;52068;50.710;14.492;2023-08-07T02:58:48;2.35;;;0.70;;
65471;SDS011;52068;50.710;14.492;2023-08-07T03:01:13;1.75;;;0.90;;
65471;SDS011;52068;50.710;14.492;2023-08-07T03:03:38;1.73;;;0.98;;
65471;SDS011;52068;50.710;14.492;2023-08-07T03:06:04;1.35;;;0.80;;
65471;SDS011;52068;50.710;14.492;2023-08-07T03:08:29;3.38;;;0.85;;
65471;SDS011;52068;50.710;14.492;2023-08-07T03:10:55;7.80;;;0.90;;
65471;SDS011;52068;50.710;14.492;2023-08-07T03:13:22;2.50;;;0.70;;
65471;SDS011;52068;50.710;14.492;2023-08-07T03:16:01;2.55;;;0.70;;
65471;SDS011;52068;50.710;14.492;2023-08-07T03:18:28;3.03;;;0.80;;
65471;SDS011;52068;50.710;14.492;2023-08-07T03:20:54;0.60;;;0.60;;
65471;SDS011;52068;50.710;14.492;2023-08-07T03:23:23;3.83;;;0.60;;
65471;SDS011;52068;50.710;14.492;2023-08-07T03:25:49;1.58;;;1.00;;
65471;SDS011;52068;50.710;14.492;2023-08-07T03:28:15;1.67;;;0.90;;
65471;SDS011;52068;50.710;14.492;2023-08-07T03:30:41;0.85;;;0.55;;
65471;SDS011;52068;50.710;14.492;2023-08-07T03:33:07;1.63;;;0.75;;
65471;SDS011;52068;50.710;14.492;2023-08-07T03:35:32;0.70;;;0.70;;
65471;SDS011;52068;50.710;14.492;2023-08-07T03:37:58;0.88;;;0.85;;
65471;SDS011;52068;50.710;14.492;2023-08-07T03:40:23;1.65;;;1.00;;
65471;SDS011;52068;50.710;14.492;2023-08-07T03:42:48;1.02;;;0.80;;
65471;SDS011;52068;50.710;14.492;2023-08-07T03:45:14;4.18;;;0.70;;
65471;SDS011;52068;50.710;14.492;2023-08-07T03:47:39;5.05;;;0.75;;
65471;SDS011;52068;50.710;14.492;2023-08-07T03:50:05;2.58;;;0.80;;
65471;SDS011;52068;50.710;14.492;2023-08-07T03:52:31;0.85;;;0.80;;
65471;SDS011;52068;50.710;14.492;2023-08-07T03:54:56;2.80;;;0.90;;
65471;SDS011;52068;50.710;14.492;2023-08-07T03:57:21;5.03;;;0.80;;
65471;SDS011;52068;50.710;14.492;2023-08-07T03:59:47;0.82;;;0.70;;
65471;SDS011;52068;50.710;14.492;2023-08-07T04:02:12;0.77;;;0.75;;
65471;SDS011;52068;50.710;14.492;2023-08-07T04:04:38;0.70;;;0.70;;
65471;SDS011;52068;50.710;14.492;2023-08-07T04:07:03;1.80;;;1.15;;
65471;SDS011;52068;50.710;14.492;2023-08-07T04:09:28;0.95;;;0.93;;
65471;SDS011;52068;50.710;14.492;2023-08-07T04:11:54;0.88;;;0.63;;
65471;SDS011;52068;50.710;14.492;2023-08-07T04:14:20;0.82;;;0.80;;
65471;SDS011;52068;50.710;14.492;2023-08-07T04:16:45;2.17;;;0.80;;
65471;SDS011;52068;50.710;14.492;2023-08-07T04:19:11;1.98;;;0.95;;
65471;SDS011;52068;50.710;14.492;2023-08-07T04:21:36;1.13;;;0.80;;
65471;SDS011;52068;50.710;14.492;2023-08-07T04:24:01;0.70;;;0.70;;
65471;SDS011;52068;50.710;14.492;2023-08-07T04:26:33;1.38;;;0.75;;
65471;SDS011;52068;50.710;14.492;2023-08-07T04:28:59;1.55;;;0.80;;
65471;SDS011;52068;50.710;14.492;2023-08-07T04:31:24;0.63;;;0.63;;
65471;SDS011;52068;50.710;14.492;2023-08-07T04:33:50;2.20;;;0.90;;
65471;SDS011;52068;50.710;14.492;2023-08-07T04:36:15;0.77;;;0.77;;
65471;SDS011;52068;50.710;14.492;2023-08-07T04:38:41;1.45;;;0.70;;
65471;SDS011;52068;50.710;14.492;2023-08-07T04:41:06;0.80;;;0.80;;
65471;SDS011;52068;50.710;14.492;2023-08-07T04:43:32;2.40;;;0.70;;
65471;SDS011;52068;50.710;14.492;2023-08-07T04:45:57;6.80;;;0.90;;
65471;SDS011;52068;50.710;14.492;2023-08-07T04:48:22;2.25;;;0.80;;
65471;SDS011;52068;50.710;14.492;2023-08-07T04:50:50;1.75;;;0.80;;
65471;SDS011;52068;50.710;14.492;2023-08-07T04:53:15;1.30;;;0.70;;
65471;SDS011;52068;50.710;14.492;2023-08-07T04:55:41;0.70;;;0.70;;
65471;SDS011;52068;50.710;14.492;2023-08-07T04:58:06;0.65;;;0.65;;
65471;SDS011;52068;50.710;14.492;2023-08-07T05:00:31;0.70;;;0.70;;
65471;SDS011;52068;50.710;14.492;2023-08-07T05:02:57;2.90;;;0.82;;
65471;SDS011;52068;50.710;14.492;2023-08-07T05:05:23;1.20;;;0.70;;
65471;SDS011;52068;50.710;14.492;2023-08-07T05:07:48;1.58;;;0.73;;
65471;SDS011;52068;50.710;14.492;2023-08-07T05:10:14;0.80;;;0.80;;
65471;SDS011;52068;50.710;14.492;2023-08-07T05:12:39;2.13;;;0.90;;
65471;SDS011;52068;50.710;14.492;2023-08-07T05:15:05;3.15;;;1.15;;
65471;SDS011;52068;50.710;14.492;2023-08-07T05:17:31;6.53;;;0.88;;
65471;SDS011;52068;50.710;14.492;2023-08-07T05:19:56;1.48;;;0.75;;
65471;SDS011;52068;50.710;14.492;2023-08-07T05:22:22;1.10;;;0.90;;
65471;SDS011;52068;50.710;14.492;2023-08-07T05:24:47;1.08;;;0.88;;
65471;SDS011;52068;50.710;14.492;2023-08-07T05:27:13;0.75;;;0.50;;
65471;SDS011;52068;50.710;14.492;2023-08-07T05:29:39;2.28;;;0.47;;
65471;SDS011;52068;50.710;14.492;2023-08-07T05:32:10;1.33;;;0.80;;
65471;SDS011;52068;50.710;14.492;2023-08-07T05:34:37;1.10;;;0.70;;
65471;SDS011;52068;50.710;14.492;2023-08-07T05:37:02;2.72;;;0.80;;
65471;SDS011;52068;50.710;14.492;2023-08-07T05:39:28;0.93;;;0.63;;
65471;SDS011;52068;50.710;14.492;2023-08-07T05:41:54;1.38;;;0.80;;
65471;SDS011;52068;50.710;14.492;2023-08-07T05:44:22;0.60;;;0.60;;
65471;SDS011;52068;50.710;14.492;2023-08-07T05:46:48;0.93;;;0.68;;
65471;SDS011;52068;50.710;14.492;2023-08-07T05:49:13;1.35;;;0.73;;
65471;SDS011;52068;50.710;14.492;2023-08-07T05:51:38;1.27;;;0.70;;
65471;SDS011;52068;50.710;14.492;2023-08-07T05:54:04;0.70;;;0.70;;
65471;SDS011;52068;50.710;14.492;2023-08-07T05:56:29;1.45;;;1.08;;
65471;SDS011;52068;50.710;14.492;2023-08-07T05:58:54;0.75;;;0.75;;
65471;SDS011;52068;50.710;14.492;2023-08-07T06:01:20;1.30;;;0.80;;
65471;SDS011;52068;50.710;14.492;2023-08-07T06:03:45;2.00;;;0.73;;
65471;SDS011;52068;50.710;14.492;2023-08-07T06:06:12;1.65;;;0.80;;
65471;SDS011;52068;50.710;14.492;2023-08-07T06:08:37;1.15;;;0.90;;
65471;SDS011;52068;50.710;14.492;2023-08-07T06:11:03;0.82;;;0.63;;
65471;SDS011;52068;50.710;14.492;2023-08-07T06:13:30;2.05;;;0.80;;
65471;SDS011;52068;50.710;14.492;2023-08-07T06:15:55;3.15;;;0.73;;
65471;SDS011;52068;50.710;14.492;2023-08-07T06:18:21;1.83;;;0.80;;
65471;SDS011;52068;50.710;14.492;2023-08-07T06:20:46;1.58;;;0.73;;
65471;SDS011;52068;50.710;14.492;2023-08-07T06:23:12;2.17;;;0.73;;
65471;SDS011;52068;50.710;14.492;2023-08-07T06:25:38;2.53;;;1.13;;
65471;SDS011;52068;50.710;14.492;2023-08-07T06:28:03;2.95;;;0.77;;
65471;SDS011;52068;50.710;14.492;2023-08-07T06:30:29;0.90;;;0.70;;
65471;SDS011;52068;50.710;14.492;2023-08-07T06:32:55;1.35;;;0.80;;
65471;SDS011;52068;50.710;14.492;2023-08-07T06:35:21;1.35;;;0.73;;
65471;SDS011;52068;50.710;14.492;2023-08-07T06:37:48;3.90;;;0.90;;
65471;SDS011;52068;50.710;14.492;2023-08-07T06:40:13;0.85;;;0.70;;
65471;SDS011;52068;50.710;14.492;2023-08-07T06:42:38;2.97;;;0.90;;
65471;SDS011;52068;50.710;14.492;2023-08-07T06:45:04;0.57;;;0.57;;
65471;SDS011;52068;50.710;14.492;2023-08-07T06:47:31;1.20;;;0.80;;
65471;SDS011;52068;50.710;14.492;2023-08-07T06:49:57;1.02;;;0.63;;
65471;SDS011;52068;50.710;14.492;2023-08-07T06:52:22;0.88;;;0.70;;
65471;SDS011;52068;50.710;14.492;2023-08-07T06:54:47;1.70;;;0.70;;
65471;SDS011;52068;50.710;14.492;2023-08-07T06:57:13;0.70;;;0.68;;
65471;SDS011;52068;50.710;14.492;2023-08-07T06:59:39;1.05;;;0.73;;
65471;SDS011;52068;50.710;14.492;2023-08-07T07:02:04;1.58;;;0.73;;
65471;SDS011;52068;50.710;14.492;2023-08-07T07:04:30;0.73;;;0.70;;
65471;SDS011;52068;50.710;14.492;2023-08-07T07:06:56;0.85;;;0.80;;
65471;SDS011;52068;50.710;14.492;2023-08-07T07:09:21;2.45;;;0.82;;
65471;SDS011;52068;50.710;14.492;2023-08-07T07:11:47;1.63;;;0.70;;
65471;SDS011;52068;50.710;14.492;2023-08-07T07:14:12;0.73;;;0.73;;
65471;SDS011;52068;50.710;14.492;2023-08-07T07:16:37;0.93;;;0.80;;
65471;SDS011;52068;50.710;14.492;2023-08-07T07:19:03;0.85;;;0.70;;
65471;SDS011;52068;50.710;14.492;2023-08-07T07:21:29;0.80;;;0.70;;
65471;SDS011;52068;50.710;14.492;2023-08-07T07:23:54;0.77;;;0.77;;
65471;SDS011;52068;50.710;14.492;2023-08-07T07:26:19;2.97;;;0.60;;
65471;SDS011;52068;50.710;14.492;2023-08-07T07:28:45;0.73;;;0.73;;
65471;SDS011;52068;50.710;14.492;2023-08-07T07:31:10;0.77;;;0.73;;
65471;SDS011;52068;50.710;14.492;2023-08-07T07:33:36;3.30;;;0.88;;
65471;SDS011;52068;50.710;14.492;2023-08-07T07:36:04;1.40;;;0.70;;
65471;SDS011;52068;50.710;14.492;2023-08-07T07:38:30;0.73;;;0.60;;
65471;SDS011;52068;50.710;14.492;2023-08-07T07:40:56;1.67;;;0.75;;
65471;SDS011;52068;50.710;14.492;2023-08-07T07:43:22;3.05;;;0.75;;
65471;SDS011;52068;50.710;14.492;2023-08-07T07:45:48;1.05;;;0.80;;
65471;SDS011;52068;50.710;14.492;2023-08-07T07:48:13;0.73;;;0.70;;
65471;SDS011;52068;50.710;14.492;2023-08-07T07:50:39;0.75;;;0.68;;
65471;SDS011;52068;50.710;14.492;2023-08-07T07:53:04;1.92;;;0.93;;
65471;SDS011;52068;50.710;14.492;2023-08-07T07:55:29;1.50;;;0.80;;
65471;SDS011;52068;50.710;14.492;2023-08-07T07:57:55;1.02;;;0.90;;
65471;SDS011;52068;50.710;14.492;2023-08-07T08:00:21;1.38;;;0.90;;
65471;SDS011;52068;50.710;14.492;2023-08-07T08:02:51;0.77;;;0.70;;
65471;SDS011;52068;50.710;14.492;2023-08-07T08:05:16;4.60;;;0.80;;
65471;SDS011;52068;50.710;14.492;2023-08-07T08:07:41;1.30;;;0.82;;
65471;SDS011;52068;50.710;14.492;2023-08-07T08:10:07;1.42;;;0.73;;
65471;SDS011;52068;50.710;14.492;2023-08-07T08:12:33;0.82;;;0.82;;
65471;SDS011;52068;50.710;14.492;2023-08-07T08:15:00;0.60;;;0.60;;
65471;SDS011;52068;50.710;14.492;2023-08-07T08:17:25;0.98;;;0.57;;
65471;SDS011;52068;50.710;14.492;2023-08-07T08:19:50;1.00;;;0.73;;
65471;SDS011;52068;50.710;14.492;2023-08-07T08:22:16;1.23;;;0.90;;
65471;SDS011;52068;50.710;14.492;2023-08-07T08:24:41;0.93;;;0.57;;
65471;SDS011;52068;50.710;14.492;2023-08-07T08:27:07;0.60;;;0.60;;
65471;SDS011;52068;50.710;14.492;2023-08-07T08:29:32;0.73;;;0.73;;
65471;SDS011;52068;50.710;14.492;2023-08-07T08:31:57;2.35;;;0.90;;
65471;SDS011;52068;50.710;14.492;2023-08-07T08:34:23;1.88;;;0.70;;
65471;SDS011;52068;50.710;14.492;2023-08-07T08:36:50;0.98;;;0.80;;
65471;SDS011;52068;50.710;14.492;2023-08-07T08:39:16;1.33;;;0.88;;
65471;SDS011;52068;50.710;14.492;2023-08-07T08:41:41;0.70;;;0.70;;
65471;SDS011;52068;50.710;14.492;2023-08-07T08:44:11;1.73;;;0.85;;
65471;SDS011;52068;50.710;14.492;2023-08-07T08:46:38;0.75;;;0.75;;
65471;SDS011;52068;50.710;14.492;2023-08-07T08:49:07;0.60;;;0.60;;
65471;SDS011;52068;50.710;14.492;2023-08-07T08:51:34;1.35;;;0.73;;
65471;SDS011;52068;50.710;14.492;2023-08-07T08:54:00;2.63;;;0.93;;
65471;SDS011;52068;50.710;14.492;2023-08-07T08:56:27;2.25;;;0.70;;
65471;SDS011;52068;50.710;14.492;2023-08-07T08:58:54;0.93;;;0.70;;
65471;SDS011;52068;50.710;14.492;2023-08-07T09:01:20;0.98;;;0.80;;
65471;SDS011;52068;50.710;14.492;2023-08-07T09:03:46;1.73;;;0.80;;
65471;SDS011;52068;50.710;14.492;2023-08-07T09:06:12;2.67;;;0.82;;
65471;SDS011;52068;50.710;14.492;2023-08-07T09:08:40;1.45;;;0.90;;
65471;SDS011;52068;50.710;14.492;2023-08-07T09:11:07;2.40;;;0.98;;
65471;SDS011;52068;50.710;14.492;2023-08-07T09:13:33;0.70;;;0.70;;
65471;SDS011;52068;50.710;14.492;2023-08-07T09:15:58;0.82;;;0.57;;
65471;SDS011;52068;50.710;14.492;2023-08-07T09:18:26;0.50;;;0.50;;
65471;SDS011;52068;50.710;14.492;2023-08-07T09:20:52;2.10;;;0.70;;
65471;SDS011;52068;50.710;14.492;2023-08-07T09:23:17;3.08;;;0.90;;
65471;SDS011;52068;50.710;14.492;2023-08-07T09:25:44;1.05;;;0.70;;
65471;SDS011;52068;50.710;14.492;2023-08-07T09:28:09;1.63;;;0.70;;
65471;SDS011;52068;50.710;14.492;2023-08-07T09:30:35;0.55;;;0.55;;
65471;SDS011;52068;50.710;14.492;2023-08-07T09:33:03;1.27;;;0.70;;
65471;SDS011;52068;50.710;14.492;2023-08-07T09:35:29;2.40;;;1.00;;
65471;SDS011;52068;50.710;14.492;2023-08-07T09:37:58;3.17;;;0.75;;
65471;SDS011;52068;50.710;14.492;2023-08-07T09:40:24;0.57;;;0.50;;
65471;SDS011;52068;50.710;14.492;2023-08-07T09:42:50;0.60;;;0.60;;
65471;SDS011;52068;50.710;14.492;2023-08-07T09:45:24;0.70;;;0.70;;
65471;SDS011;52068;50.710;14.492;2023-08-07T09:50:22;0.70;;;0.70;;
65471;SDS011;52068;50.710;14.492;2023-08-07T09:52:48;0.80;;;0.73;;
65471;SDS011;52068;50.710;14.492;2023-08-07T09:55:14;0.65;;;0.50;;
65471;SDS011;52068;50.710;14.492;2023-08-07T09:57:42;2.13;;;0.80;;
65471;SDS011;52068;50.710;14.492;2023-08-07T10:00:09;1.50;;;0.70;;
65471;SDS011;52068;50.710;14.492;2023-08-07T10:02:36;1.08;;;0.70;;
65471;SDS011;52068;50.710;14.492;2023-08-07T10:05:02;3.13;;;0.80;;
65471;SDS011;52068;50.710;14.492;2023-08-07T10:07:30;2.80;;;0.70;;
65471;SDS011;52068;50.710;14.492;2023-08-07T10:09:56;0.40;;;0.40;;
65471;SDS011;52068;50.710;14.492;2023-08-07T10:12:23;1.38;;;0.80;;
65471;SDS011;52068;50.710;14.492;2023-08-07T10:14:48;0.70;;;0.70;;
65471;SDS011;52068;50.710;14.492;2023-08-07T10:17:15;1.70;;;0.60;;
65471;SDS011;52068;50.710;14.492;2023-08-07T10:19:41;2.22;;;0.70;;
65471;SDS011;52068;50.710;14.492;2023-08-07T10:22:06;0.80;;;0.60;;
65471;SDS011;52068;50.710;14.492;2023-08-07T10:24:33;1.10;;;0.70;;
65471;SDS011;52068;50.710;14.492;2023-08-07T10:27:02;0.60;;;0.60;;
65471;SDS011;52068;50.710;14.492;2023-08-07T10:29:29;1.00;;;0.73;;
65471;SDS011;52068;50.710;14.492;2023-08-07T10:31:56;0.80;;;0.77;;
65471;SDS011;52068;50.710;14.492;2023-08-07T10:34:23;2.80;;;0.77;;
65471;SDS011;52068;50.710;14.492;2023-08-07T10:36:48;1.17;;;0.90;;
65471;SDS011;52068;50.710;14.492;2023-08-07T10:39:14;0.95;;;0.85;;
65471;SDS011;52068;50.710;14.492;2023-08-07T10:41:41;1.02;;;0.70;;
65471;SDS011;52068;50.710;14.492;2023-08-07T10:44:16;0.75;;;0.60;;
65471;SDS011;52068;50.710;14.492;2023-08-07T10:46:52;1.33;;;0.55;;
65471;SDS011;52068;50.710;14.492;2023-08-07T10:52:09;1.05;;;0.80;;
65471;SDS011;52068;50.710;14.492;2023-08-07T10:54:40;0.77;;;0.60;;
65471;SDS011;52068;50.710;14.492;2023-08-07T10:57:11;5.35;;;0.80;;
65471;SDS011;52068;50.710;14.492;2023-08-07T10:59:38;1.42;;;0.80;;
65471;SDS011;52068;50.710;14.492;2023-08-07T11:02:10;1.48;;;0.82;;
65471;SDS011;52068;50.710;14.492;2023-08-07T11:04:37;1.63;;;0.80;;
65471;SDS011;52068;50.710;14.492;2023-08-07T11:07:03;1.65;;;0.90;;
65471;SDS011;52068;50.710;14.492;2023-08-07T11:09:29;1.17;;;0.85;;
65471;SDS011;52068;50.710;14.492;2023-08-07T11:11:54;1.52;;;1.00;;
65471;SDS011;52068;50.710;14.492;2023-08-07T11:14:20;2.72;;;1.05;;
65471;SDS011;52068;50.710;14.492;2023-08-07T11:16:46;2.25;;;0.85;;
65471;SDS011;52068;50.710;14.492;2023-08-07T11:19:16;1.30;;;1.00;;
65471;SDS011;52068;50.710;14.492;2023-08-07T11:21:42;0.80;;;0.70;;
65471;SDS011;52068;50.710;14.492;2023-08-07T11:24:08;2.28;;;1.05;;
65471;SDS011;52068;50.710;14.492;2023-08-07T11:26:37;2.65;;;1.15;;
65471;SDS011;52068;50.710;14.492;2023-08-07T11:29:03;4.05;;;1.20;;
65471;SDS011;52068;50.710;14.492;2023-08-07T11:31:28;2.17;;;1.17;;
65471;SDS011;52068;50.710;14.492;2023-08-07T11:33:57;2.65;;;1.10;;
65471;SDS011;52068;50.710;14.492;2023-08-07T11:36:23;3.40;;;1.20;;
65471;SDS011;52068;50.710;14.492;2023-08-07T11:38:49;3.10;;;1.23;;
65471;SDS011;52068;50.710;14.492;2023-08-07T11:41:15;2.58;;;1.33;;
65471;SDS011;52068;50.710;14.492;2023-08-07T11:43:43;2.83;;;1.23;;
65471;SDS011;52068;50.710;14.492;2023-08-07T11:46:10;4.55;;;1.40;;
65471;SDS011;52068;50.710;14.492;2023-08-07T11:48:37;2.17;;;1.00;;
65471;SDS011;52068;50.710;14.492;2023-08-07T11:51:04;3.95;;;0.98;;
65471;SDS011;52068;50.710;14.492;2023-08-07T11:53:32;4.03;;;1.25;;
65471;SDS011;52068;50.710;14.492;2023-08-07T11:55:59;2.97;;;1.20;;
65471;SDS011;52068;50.710;14.492;2023-08-07T11:58:36;1.27;;;1.02;;
65471;SDS011;52068;50.710;14.492;2023-08-07T12:03:35;3.70;;;1.48;;
65471;SDS011;52068;50.710;14.492;2023-08-07T12:06:04;6.88;;;1.65;;
65471;SDS011;52068;50.710;14.492;2023-08-07T12:08:31;2.63;;;1.38;;
65471;SDS011;52068;50.710;14.492;2023-08-07T12:10:57;5.55;;;1.33;;
65471;SDS011;52068;50.710;14.492;2023-08-07T12:13:25;2.08;;;1.13;;
65471;SDS011;52068;50.710;14.492;2023-08-07T12:15:55;2.43;;;1.10;;
65471;SDS011;52068;50.710;14.492;2023-08-07T12:18:21;1.55;;;0.98;;
65471;SDS011;52068;50.710;14.492;2023-08-07T12:20:51;3.40;;;1.20;;
65471;SDS011;52068;50.710;14.492;2023-08-07T12:23:17;3.25;;;1.00;;
65471;SDS011;52068;50.710;14.492;2023-08-07T12:25:43;4.13;;;1.35;;
65471;SDS011;52068;50.710;14.492;2023-08-07T12:28:09;2.35;;;1.30;;
65471;SDS011;52068;50.710;14.492;2023-08-07T12:30:35;2.53;;;1.50;;
65471;SDS011;52068;50.710;14.492;2023-08-07T12:33:01;7.68;;;1.75;;
65471;SDS011;52068;50.710;14.492;2023-08-07T12:35:29;2.28;;;1.20;;
65471;SDS011;52068;50.710;14.492;2023-08-07T12:37:57;2.53;;;1.25;;
65471;SDS011;52068;50.710;14.492;2023-08-07T12:40:23;4.25;;;1.40;;
65471;SDS011;52068;50.710;14.492;2023-08-07T12:42:49;2.25;;;1.15;;
65471;SDS011;52068;50.710;14.492;2023-08-07T12:45:15;2.67;;;0.95;;
65471;SDS011;52068;50.710;14.492;2023-08-07T12:47:44;2.28;;;0.95;;
65471;SDS011;52068;50.710;14.492;2023-08-07T12:50:10;2.70;;;1.30;;
65471;SDS011;52068;50.710;14.492;2023-08-07T12:52:35;0.95;;;0.85;;
65471;SDS011;52068;50.710;14.492;2023-08-07T12:55:01;2.25;;;1.20;;
65471;SDS011;52068;50.710;14.492;2023-08-07T12:57:26;5.68;;;1.08;;
65471;SDS011;52068;50.710;14.492;2023-08-07T12:59:51;2.38;;;1.00;;
65471;SDS011;52068;50.710;14.492;2023-08-07T13:02:17;3.55;;;1.20;;
65471;SDS011;52068;50.710;14.492;2023-08-07T13:04:42;2.78;;;1.30;;
65471;SDS011;52068;50.710;14.492;2023-08-07T13:07:08;2.00;;;1.00;;
65471;SDS011;52068;50.710;14.492;2023-08-07T13:09:33;3.03;;;1.00;;
65471;SDS011;52068;50.710;14.492;2023-08-07T13:11:58;1.40;;;1.00;;
65471;SDS011;52068;50.710;14.492;2023-08-07T13:14:25;2.63;;;1.15;;
65471;SDS011;52068;50.710;14.492;2023-08-07T13:16:50;2.92;;;1.27;;
65471;SDS011;52068;50.710;14.492;2023-08-07T13:19:16;1.95;;;1.00;;
65471;SDS011;52068;50.710;14.492;2023-08-07T13:21:41;3.28;;;1.35;;
65471;SDS011;52068;50.710;14.492;2023-08-07T13:24:07;1.75;;;1.08;;
65471;SDS011;52068;50.710;14.492;2023-08-07T13:26:32;3.38;;;1.20;;
65471;SDS011;52068;50.710;14.492;2023-08-07T13:28:58;2.88;;;1.10;;
65471;SDS011;52068;50.710;14.492;2023-08-07T13:31:23;4.32;;;1.50;;
65471;SDS011;52068;50.710;14.492;2023-08-07T13:33:48;3.47;;;1.33;;
65471;SDS011;52068;50.710;14.492;2023-08-07T13:36:14;2.88;;;1.08;;
65471;SDS011;52068;50.710;14.492;2023-08-07T13:38:39;2.75;;;0.98;;
65471;SDS011;52068;50.710;14.492;2023-08-07T13:41:04;3.15;;;1.30;;
65471;SDS011;52068;50.710;14.492;2023-08-07T13:43:30;3.38;;;1.25;;
65471;SDS011;52068;50.710;14.492;2023-08-07T13:45:55;2.20;;;1.10;;
65471;SDS011;52068;50.710;14.492;2023-08-07T13:48:20;2.35;;;1.10;;
65471;SDS011;52068;50.710;14.492;2023-08-07T13:50:46;3.13;;;1.05;;
65471;SDS011;52068;50.710;14.492;2023-08-07T13:53:12;1.88;;;1.20;;
65471;SDS011;52068;50.710;14.492;2023-08-07T13:55:37;2.90;;;1.10;;
65471;SDS011;52068;50.710;14.492;2023-08-07T13:58:03;1.63;;;1.00;;
65471;SDS011;52068;50.710;14.492;2023-08-07T14:00:29;3.00;;;1.20;;
65471;SDS011;52068;50.710;14.492;2023-08-07T14:02:54;2.25;;;1.23;;
65471;SDS011;52068;50.710;14.492;2023-08-07T14:05:20;1.38;;;0.90;;
65471;SDS011;52068;50.710;14.492;2023-08-07T14:07:45;1.58;;;0.85;;
65471;SDS011;52068;50.710;14.492;2023-08-07T14:10:11;1.73;;;0.85;;
65471;SDS011;52068;50.710;14.492;2023-08-07T14:12:36;2.08;;;0.82;;
65471;SDS011;52068;50.710;14.492;2023-08-07T14:15:01;1.58;;;1.13;;
65471;SDS011;52068;50.710;14.492;2023-08-07T14:17:27;1.58;;;0.95;;
65471;SDS011;52068;50.710;14.492;2023-08-07T14:19:52;1.75;;;1.00;;
65471;SDS011;52068;50.710;14.492;2023-08-07T14:22:17;1.17;;;0.85;;
65471;SDS011;52068;50.710;14.492;2023-08-07T14:24:43;2.10;;;0.90;;
65471;SDS011;52068;50.710;14.492;2023-08-07T14:27:08;2.08;;;0.90;;
65471;SDS011;52068;50.710;14.492;2023-08-07T14:29:34;1.67;;;0.85;;
65471;SDS011;52068;50.710;14.492;2023-08-07T14:31:59;1.02;;;0.80;;
65471;SDS011;52068;50.710;14.492;2023-08-07T14:34:24;0.90;;;0.70;;
65471;SDS011;52068;50.710;14.492;2023-08-07T14:36:50;1.35;;;0.75;;